Christiana, Delaware
Current Conditions -  °F | °C
As of 1:51 PM on Saturday 20 Dec 2014 (Local Time) from KILG Reporting Station
Overcast Overcast  
Wind Chill: 36°   Ceiling: 3400
Heat Index: 36°   Visibility: 10mi
Dew Point: 21°   Wind: 3mph
Humidity: 55%   Direction: 310°NW
Pressure: 30.27"   Gusts: NA
Location:  39.6223°N, 75.7264°W
Report Text: KILG 201851Z 31003KT 10SM OVC034 02/M06 A3027 RMK AO2 SLP250 T00221061
Loading
Personal Weather Stations






























Interactive Weather Map New forecast layout! Learn more

10-Day Weather Forecast

Advertisements
Track Severe Weather on mobile